Star Kvarven — LAJK7 — position and weather

sailwx.info

Track history (hours):
 
Tides and Currents Weather Stations Pressure Air Temp Water Temp Dewpoint Dewpoint Depression Visibility Wind Speed Wind Dir Waves Ship Positions

Star Kvarven

Last reported at 2017-Nov-19 07:43 UTC. Time now 2017-Nov-23 10:55 UTC.
Position N 31°11' E 122°10'.

Length 208 m; draft 7 m.

Type: Cargo ship. MMSI: 257661000.

Date/timePositionNaut miles runAvg speedWind from/ knotsBaromVisibWave heightAir tempDewpointWater temp
2017-Nov-19 07:43N 31°11' E 122°10'315.2
2017-Nov-19 07:30N 31°13' E 122°06'714.8
2017-Nov-19 07:00N 31°15' E 121°58'613.0
2017-Nov-19 06:30N 31°17' E 121°51'612.3
2017-Nov-19 06:00N 31°19' E 121°44'611.3
2017-Nov-19 05:30N 31°22' E 121°38'510.5
2017-Nov-19 05:00N 31°24' E 121°33'5 9.5
2017-Nov-19 04:30N 31°27' E 121°28'5 9.6
2017-Nov-19 04:00N 31°30' E 121°24'612.2
2017-Nov-19 03:30N 31°34' E 121°19'714.0
2017-Nov-19 03:00N 31°39' E 121°13'714.4
2017-Nov-19 02:30N 31°44' E 121°07'4 0.6
2017-Nov-18 18:40N 31°47' E 121°03'0 0.2
2017-Nov-18 18:16N 31°47' E 121°03'0 0.0
2017-Nov-18 17:52N 31°47' E 121°03'0 0.0
2017-Nov-18 16:58N 31°47' E 121°03'0 0.0
2017-Nov-18 11:28N 31°47' E 121°03'  
2017-Nov-15 01:14N 31°47' E 120°60'311.3
2017-Nov-15 00:58N 31°46' E 121°03'0 0.8
2017-Nov-15 00:27N 31°47' E 121°03'0 0.0
2017-Nov-14 16:33N 31°47' E 121°03'0 0.0
2017-Nov-14 16:18N 31°47' E 121°03'0 0.1
2017-Nov-14 15:57N 31°47' E 121°03'0 0.0
2017-Nov-14 06:03N 31°47' E 121°03'0 1.0
2017-Nov-14 06:00N 31°47' E 121°03'2 4.2
2017-Nov-14 05:27N 31°45' E 121°05'613.0
2017-Nov-14 05:00N 31°41' E 121°11'713.6
2017-Nov-14 04:30N 31°37' E 121°17'611.4
2017-Nov-14 04:01N 31°32' E 121°21'611.9
2017-Nov-14 03:31N 31°29' E 121°27'510.0
2017-Nov-14 03:01N 31°25' E 121°31'510.8
2017-Nov-14 02:30N 31°23' E 121°36'510.9
2017-Nov-14 02:00N 31°20' E 121°42'510.6
2017-Nov-14 01:30N 31°18' E 121°47'611.4
2017-Nov-14 01:00N 31°16' E 121°54'611.7
2017-Nov-14 00:30N 31°15' E 122°00'611.2
2017-Nov-14 00:00N 31°13' E 122°07'611.9
2017-Nov-13 23:30N 31°10' E 122°12'710.6
2017-Nov-13 22:52N 31°06' E 122°19'44610.1
2017-Nov-12 02:46N 24°23' E 118°43'413.6
2017-Nov-12 02:30N 24°22' E 118°39'713.4
2017-Nov-12 02:00N 24°21' E 118°32'713.8
2017-Nov-12 01:30N 24°21' E 118°24'714.3
2017-Nov-12 01:00N 24°20' E 118°16'714.0
2017-Nov-12 00:31N 24°22' E 118°09'612.7
2017-Nov-12 00:00N 24°26' E 118°03'5 9.4
2017-Nov-11 23:30N 24°30' E 118°04'3 4.9
2017-Nov-11 23:00N 24°33' E 118°06'0 0.0
2017-Nov-11 22:30N 24°33' E 118°06'0 0.0
2017-Nov-11 21:59N 24°33' E 118°06'0 0.0
2017-Nov-11 21:29N 24°33' E 118°06'0 0.0
2017-Nov-11 20:59N 24°33' E 118°06'0 0.0
2017-Nov-11 20:29N 24°33' E 118°06'0 0.0
2017-Nov-11 19:59N 24°33' E 118°06'0 0.0
2017-Nov-11 19:29N 24°33' E 118°06'0 0.0
2017-Nov-11 18:59N 24°33' E 118°06'0 0.0
2017-Nov-11 18:29N 24°33' E 118°06'0 0.0
2017-Nov-11 17:59N 24°33' E 118°06'0 0.0
2017-Nov-11 17:29N 24°33' E 118°06'0 0.0
2017-Nov-11 16:59N 24°33' E 118°06'0 0.0
2017-Nov-11 16:14N 24°33' E 118°06'0 0.0
2017-Nov-11 15:56N 24°33' E 118°06'0 0.0
2017-Nov-11 15:29N 24°33' E 118°06'0 0.0
2017-Nov-11 14:56N 24°33' E 118°06'0 0.0
2017-Nov-11 14:29N 24°33' E 118°06'0 0.0
2017-Nov-11 13:59N 24°33' E 118°06'0 0.0
2017-Nov-11 13:29N 24°33' E 118°06'0 0.0
2017-Nov-11 12:59N 24°33' E 118°06'0 0.0
2017-Nov-11 12:29N 24°33' E 118°06'0 0.0
2017-Nov-11 11:59N 24°33' E 118°06'0 0.0
2017-Nov-11 11:30N 24°33' E 118°06'0 0.0
2017-Nov-11 11:00N 24°33' E 118°06'0 0.0
2017-Nov-11 10:30N 24°33' E 118°06'0 0.0
2017-Nov-11 10:00N 24°33' E 118°06'0 0.0
2017-Nov-11 09:30N 24°33' E 118°06'0 0.0
2017-Nov-11 09:00N 24°33' E 118°06'0 0.0
2017-Nov-11 08:30N 24°33' E 118°06'0 0.0
2017-Nov-11 08:00N 24°33' E 118°06'0 0.0
2017-Nov-11 07:30N 24°33' E 118°06'0 0.0
2017-Nov-11 07:00N 24°33' E 118°06'0 0.0
2017-Nov-11 06:30N 24°33' E 118°06'0 0.0
2017-Nov-11 06:00N 24°33' E 118°06'0 0.0
2017-Nov-11 05:30N 24°33' E 118°06'0 0.0
2017-Nov-11 05:00N 24°33' E 118°06'0 0.0
2017-Nov-11 04:30N 24°33' E 118°06'0 0.0
2017-Nov-11 04:00N 24°33' E 118°06'0 0.0
2017-Nov-11 03:30N 24°33' E 118°06'0 0.0
2017-Nov-11 03:00N 24°33' E 118°06'0 0.0
2017-Nov-11 02:30N 24°33' E 118°06'0 0.0
2017-Nov-11 02:00N 24°33' E 118°06'0 0.0
2017-Nov-11 01:30N 24°33' E 118°06'0 0.0
2017-Nov-11 01:00N 24°33' E 118°06'0 0.0
2017-Nov-11 00:30N 24°33' E 118°06'0 0.0
2017-Nov-11 00:00N 24°33' E 118°06'0 0.0
2017-Nov-10 23:30N 24°33' E 118°06'0 0.0
2017-Nov-10 23:00N 24°33' E 118°06'0 0.0
2017-Nov-10 22:30N 24°33' E 118°06'0 0.1
2017-Nov-10 22:00N 24°33' E 118°05'2 3.1
2017-Nov-10 21:30N 24°31' E 118°05'3 6.9
2017-Nov-10 21:00N 24°28' E 118°03'4 7.8
2017-Nov-10 20:30N 24°25' E 118°05'4 8.3
2017-Nov-10 20:00N 24°22' E 118°09'611.5
2017-Nov-10 19:30N 24°18' E 118°13'714.0
2017-Nov-10 19:00N 24°12' E 118°18'714.6
2017-Nov-10 18:30N 24°05' E 118°20'815.3
2017-Nov-10 18:00N 23°58' E 118°18'  
Track history (hours):
 
Tides and Currents Weather Stations Pressure Air Temp Water Temp Dewpoint Dewpoint Depression Visibility Wind Speed Wind Dir Waves Ship Positions

Star Kvarven

Last reported at 2017-Nov-19 07:43 UTC. Time now 2017-Nov-23 10:55 UTC.
Position N 31°11' E 122°10'.

Length 208 m; draft 7 m.

Type: Cargo ship. MMSI: 257661000.

Date/timePositionNaut miles runAvg speedWind from/ knotsBaromVisibWave heightAir tempDewpointWater temp
2017-Nov-19 07:43N 31°11' E 122°10'315.2
2017-Nov-19 07:30N 31°13' E 122°06'714.8
2017-Nov-19 07:00N 31°15' E 121°58'613.0
2017-Nov-19 06:30N 31°17' E 121°51'612.3
2017-Nov-19 06:00N 31°19' E 121°44'611.3
2017-Nov-19 05:30N 31°22' E 121°38'510.5
2017-Nov-19 05:00N 31°24' E 121°33'5 9.5
2017-Nov-19 04:30N 31°27' E 121°28'5 9.6
2017-Nov-19 04:00N 31°30' E 121°24'612.2
2017-Nov-19 03:30N 31°34' E 121°19'714.0
2017-Nov-19 03:00N 31°39' E 121°13'714.4
2017-Nov-19 02:30N 31°44' E 121°07'4 0.6
2017-Nov-18 18:40N 31°47' E 121°03'0 0.2
2017-Nov-18 18:16N 31°47' E 121°03'0 0.0
2017-Nov-18 17:52N 31°47' E 121°03'0 0.0
2017-Nov-18 16:58N 31°47' E 121°03'0 0.0
2017-Nov-18 11:28N 31°47' E 121°03'  
2017-Nov-15 01:14N 31°47' E 120°60'311.3
2017-Nov-15 00:58N 31°46' E 121°03'0 0.8
2017-Nov-15 00:27N 31°47' E 121°03'0 0.0
2017-Nov-14 16:33N 31°47' E 121°03'0 0.0
2017-Nov-14 16:18N 31°47' E 121°03'0 0.1
2017-Nov-14 15:57N 31°47' E 121°03'0 0.0
2017-Nov-14 06:03N 31°47' E 121°03'0 1.0
2017-Nov-14 06:00N 31°47' E 121°03'2 4.2
2017-Nov-14 05:27N 31°45' E 121°05'613.0
2017-Nov-14 05:00N 31°41' E 121°11'713.6
2017-Nov-14 04:30N 31°37' E 121°17'611.4
2017-Nov-14 04:01N 31°32' E 121°21'611.9
2017-Nov-14 03:31N 31°29' E 121°27'510.0
2017-Nov-14 03:01N 31°25' E 121°31'510.8
2017-Nov-14 02:30N 31°23' E 121°36'510.9
2017-Nov-14 02:00N 31°20' E 121°42'510.6
2017-Nov-14 01:30N 31°18' E 121°47'611.4
2017-Nov-14 01:00N 31°16' E 121°54'611.7
2017-Nov-14 00:30N 31°15' E 122°00'611.2
2017-Nov-14 00:00N 31°13' E 122°07'611.9
2017-Nov-13 23:30N 31°10' E 122°12'710.6
2017-Nov-13 22:52N 31°06' E 122°19'44610.1
2017-Nov-12 02:46N 24°23' E 118°43'413.6
2017-Nov-12 02:30N 24°22' E 118°39'713.4
2017-Nov-12 02:00N 24°21' E 118°32'713.8
2017-Nov-12 01:30N 24°21' E 118°24'714.3
2017-Nov-12 01:00N 24°20' E 118°16'714.0
2017-Nov-12 00:31N 24°22' E 118°09'612.7
2017-Nov-12 00:00N 24°26' E 118°03'5 9.4
2017-Nov-11 23:30N 24°30' E 118°04'3 4.9
2017-Nov-11 23:00N 24°33' E 118°06'0 0.0
2017-Nov-11 22:30N 24°33' E 118°06'0 0.0
2017-Nov-11 21:59N 24°33' E 118°06'0 0.0
2017-Nov-11 21:29N 24°33' E 118°06'0 0.0
2017-Nov-11 20:59N 24°33' E 118°06'0 0.0
2017-Nov-11 20:29N 24°33' E 118°06'0 0.0
2017-Nov-11 19:59N 24°33' E 118°06'0 0.0
2017-Nov-11 19:29N 24°33' E 118°06'0 0.0
2017-Nov-11 18:59N 24°33' E 118°06'0 0.0
2017-Nov-11 18:29N 24°33' E 118°06'0 0.0
2017-Nov-11 17:59N 24°33' E 118°06'0 0.0
2017-Nov-11 17:29N 24°33' E 118°06'0 0.0
2017-Nov-11 16:59N 24°33' E 118°06'0 0.0
2017-Nov-11 16:14N 24°33' E 118°06'0 0.0
2017-Nov-11 15:56N 24°33' E 118°06'0 0.0
2017-Nov-11 15:29N 24°33' E 118°06'0 0.0
2017-Nov-11 14:56N 24°33' E 118°06'0 0.0
2017-Nov-11 14:29N 24°33' E 118°06'0 0.0
2017-Nov-11 13:59N 24°33' E 118°06'0 0.0
2017-Nov-11 13:29N 24°33' E 118°06'0 0.0
2017-Nov-11 12:59N 24°33' E 118°06'0 0.0
2017-Nov-11 12:29N 24°33' E 118°06'0 0.0
2017-Nov-11 11:59N 24°33' E 118°06'0 0.0
2017-Nov-11 11:30N 24°33' E 118°06'0 0.0
2017-Nov-11 11:00N 24°33' E 118°06'0 0.0
2017-Nov-11 10:30N 24°33' E 118°06'0 0.0
2017-Nov-11 10:00N 24°33' E 118°06'0 0.0
2017-Nov-11 09:30N 24°33' E 118°06'0 0.0
2017-Nov-11 09:00N 24°33' E 118°06'0 0.0
2017-Nov-11 08:30N 24°33' E 118°06'0 0.0
2017-Nov-11 08:00N 24°33' E 118°06'0 0.0
2017-Nov-11 07:30N 24°33' E 118°06'0 0.0
2017-Nov-11 07:00N 24°33' E 118°06'0 0.0
2017-Nov-11 06:30N 24°33' E 118°06'0 0.0
2017-Nov-11 06:00N 24°33' E 118°06'0 0.0
2017-Nov-11 05:30N 24°33' E 118°06'0 0.0
2017-Nov-11 05:00N 24°33' E 118°06'0 0.0
2017-Nov-11 04:30N 24°33' E 118°06'0 0.0
2017-Nov-11 04:00N 24°33' E 118°06'0 0.0
2017-Nov-11 03:30N 24°33' E 118°06'0 0.0
2017-Nov-11 03:00N 24°33' E 118°06'0 0.0
2017-Nov-11 02:30N 24°33' E 118°06'0 0.0
2017-Nov-11 02:00N 24°33' E 118°06'0 0.0
2017-Nov-11 01:30N 24°33' E 118°06'0 0.0
2017-Nov-11 01:00N 24°33' E 118°06'0 0.0
2017-Nov-11 00:30N 24°33' E 118°06'0 0.0
2017-Nov-11 00:00N 24°33' E 118°06'0 0.0
2017-Nov-10 23:30N 24°33' E 118°06'0 0.0
2017-Nov-10 23:00N 24°33' E 118°06'0 0.0
2017-Nov-10 22:30N 24°33' E 118°06'0 0.1
2017-Nov-10 22:00N 24°33' E 118°05'2 3.1
2017-Nov-10 21:30N 24°31' E 118°05'3 6.9
2017-Nov-10 21:00N 24°28' E 118°03'4 7.8
2017-Nov-10 20:30N 24°25' E 118°05'4 8.3
2017-Nov-10 20:00N 24°22' E 118°09'611.5
2017-Nov-10 19:30N 24°18' E 118°13'714.0
2017-Nov-10 19:00N 24°12' E 118°18'714.6
2017-Nov-10 18:30N 24°05' E 118°20'815.3
2017-Nov-10 18:00N 23°58' E 118°18'  

Dump ship's entire track history